sensor_id;sensor_type;location;lat;lon;timestamp;temperature;humidity
4505;DHT22;2265;48.794;9.520;2023-04-03T00:00:52;5.10;98.00
4505;DHT22;2265;48.794;9.520;2023-04-03T00:03:20;5.00;98.00
4505;DHT22;2265;48.794;9.520;2023-04-03T00:05:47;5.00;98.00
4505;DHT22;2265;48.794;9.520;2023-04-03T00:08:14;5.10;98.00
4505;DHT22;2265;48.794;9.520;2023-04-03T00:10:44;5.10;98.00
4505;DHT22;2265;48.794;9.520;2023-04-03T00:13:11;5.00;98.00
4505;DHT22;2265;48.794;9.520;2023-04-03T00:15:41;5.00;98.00
4505;DHT22;2265;48.794;9.520;2023-04-03T00:18:08;4.90;98.00
4505;DHT22;2265;48.794;9.520;2023-04-03T00:20:35;4.80;98.00
4505;DHT22;2265;48.794;9.520;2023-04-03T00:23:02;4.70;98.00
4505;DHT22;2265;48.794;9.520;2023-04-03T00:25:30;4.80;98.00
4505;DHT22;2265;48.794;9.520;2023-04-03T00:27:58;4.90;98.00
4505;DHT22;2265;48.794;9.520;2023-04-03T00:30:25;5.00;98.00
4505;DHT22;2265;48.794;9.520;2023-04-03T00:32:55;5.00;98.00
4505;DHT22;2265;48.794;9.520;2023-04-03T00:35:23;5.10;98.00
4505;DHT22;2265;48.794;9.520;2023-04-03T00:37:51;5.10;98.00
4505;DHT22;2265;48.794;9.520;2023-04-03T00:40:21;5.00;98.00
4505;DHT22;2265;48.794;9.520;2023-04-03T00:42:52;4.80;98.00
4505;DHT22;2265;48.794;9.520;2023-04-03T00:45:32;4.80;98.00
4505;DHT22;2265;48.794;9.520;2023-04-03T00:48:03;4.80;98.00
4505;DHT22;2265;48.794;9.520;2023-04-03T00:50:35;4.80;98.00
4505;DHT22;2265;48.794;9.520;2023-04-03T00:53:05;5.00;98.00
4505;DHT22;2265;48.794;9.520;2023-04-03T00:55:41;4.90;98.00
4505;DHT22;2265;48.794;9.520;2023-04-03T00:58:10;4.90;98.00
4505;DHT22;2265;48.794;9.520;2023-04-03T01:00:41;4.90;98.00
4505;DHT22;2265;48.794;9.520;2023-04-03T01:03:10;4.90;98.00
4505;DHT22;2265;48.794;9.520;2023-04-03T01:05:37;4.80;98.00
4505;DHT22;2265;48.794;9.520;2023-04-03T01:08:04;4.90;98.00
4505;DHT22;2265;48.794;9.520;2023-04-03T01:10:31;4.90;98.00
4505;DHT22;2265;48.794;9.520;2023-04-03T01:13:00;4.70;98.00
4505;DHT22;2265;48.794;9.520;2023-04-03T01:15:29;4.70;98.00
4505;DHT22;2265;48.794;9.520;2023-04-03T01:18:02;4.70;98.00
4505;DHT22;2265;48.794;9.520;2023-04-03T01:23:34;4.60;98.00
4505;DHT22;2265;48.794;9.520;2023-04-03T01:26:02;4.60;98.00
4505;DHT22;2265;48.794;9.520;2023-04-03T01:28:31;4.50;98.00
4505;DHT22;2265;48.794;9.520;2023-04-03T01:31:09;4.40;98.00
4505;DHT22;2265;48.794;9.520;2023-04-03T01:33:39;4.40;98.00
4505;DHT22;2265;48.794;9.520;2023-04-03T01:36:09;4.50;98.00
4505;DHT22;2265;48.794;9.520;2023-04-03T01:38:36;4.40;98.00
4505;DHT22;2265;48.794;9.520;2023-04-03T01:41:05;4.30;98.00
4505;DHT22;2265;48.794;9.520;2023-04-03T01:43:32;4.40;98.00
4505;DHT22;2265;48.794;9.520;2023-04-03T01:46:02;4.20;98.00
4505;DHT22;2265;48.794;9.520;2023-04-03T01:48:29;4.20;98.00
4505;DHT22;2265;48.794;9.520;2023-04-03T01:50:59;4.30;98.00
4505;DHT22;2265;48.794;9.520;2023-04-03T01:53:28;4.30;98.00
4505;DHT22;2265;48.794;9.520;2023-04-03T01:55:55;4.20;98.00
4505;DHT22;2265;48.794;9.520;2023-04-03T01:58:22;4.10;98.00
4505;DHT22;2265;48.794;9.520;2023-04-03T02:00:49;4.10;98.00
4505;DHT22;2265;48.794;9.520;2023-04-03T02:03:16;4.00;98.00
4505;DHT22;2265;48.794;9.520;2023-04-03T02:05:44;4.10;98.00
4505;DHT22;2265;48.794;9.520;2023-04-03T02:08:12;4.20;98.00
4505;DHT22;2265;48.794;9.520;2023-04-03T02:10:40;4.20;98.00
4505;DHT22;2265;48.794;9.520;2023-04-03T02:13:07;4.20;98.00
4505;DHT22;2265;48.794;9.520;2023-04-03T02:15:34;4.20;98.00
4505;DHT22;2265;48.794;9.520;2023-04-03T02:18:01;4.30;98.00
4505;DHT22;2265;48.794;9.520;2023-04-03T02:20:28;4.20;98.00
4505;DHT22;2265;48.794;9.520;2023-04-03T02:22:55;4.20;98.00
4505;DHT22;2265;48.794;9.520;2023-04-03T02:25:24;4.20;98.00
4505;DHT22;2265;48.794;9.520;2023-04-03T02:27:51;4.20;98.00
4505;DHT22;2265;48.794;9.520;2023-04-03T02:30:21;4.40;98.00
4505;DHT22;2265;48.794;9.520;2023-04-03T02:32:48;4.40;98.00
4505;DHT22;2265;48.794;9.520;2023-04-03T02:35:15;4.50;98.00
4505;DHT22;2265;48.794;9.520;2023-04-03T02:37:42;4.50;98.00
4505;DHT22;2265;48.794;9.520;2023-04-03T02:40:10;4.50;98.00
4505;DHT22;2265;48.794;9.520;2023-04-03T02:42:40;4.50;98.00
4505;DHT22;2265;48.794;9.520;2023-04-03T02:45:07;4.60;98.00
4505;DHT22;2265;48.794;9.520;2023-04-03T02:47:35;4.50;98.00
4505;DHT22;2265;48.794;9.520;2023-04-03T02:50:03;4.50;98.00
4505;DHT22;2265;48.794;9.520;2023-04-03T02:52:31;4.50;98.00
4505;DHT22;2265;48.794;9.520;2023-04-03T02:54:58;4.50;98.00
4505;DHT22;2265;48.794;9.520;2023-04-03T02:57:28;4.60;98.00
4505;DHT22;2265;48.794;9.520;2023-04-03T02:59:57;4.60;98.00
4505;DHT22;2265;48.794;9.520;2023-04-03T03:02:25;4.70;98.00
4505;DHT22;2265;48.794;9.520;2023-04-03T03:04:53;4.80;98.00
4505;DHT22;2265;48.794;9.520;2023-04-03T03:07:20;4.90;98.00
4505;DHT22;2265;48.794;9.520;2023-04-03T03:09:48;4.90;98.00
4505;DHT22;2265;48.794;9.520;2023-04-03T03:12:15;4.80;98.00
4505;DHT22;2265;48.794;9.520;2023-04-03T03:14:47;4.80;98.00
4505;DHT22;2265;48.794;9.520;2023-04-03T03:17:17;4.80;98.00
4505;DHT22;2265;48.794;9.520;2023-04-03T03:19:44;4.70;98.00
4505;DHT22;2265;48.794;9.520;2023-04-03T03:22:14;4.80;98.00
4505;DHT22;2265;48.794;9.520;2023-04-03T03:24:43;4.80;98.00
4505;DHT22;2265;48.794;9.520;2023-04-03T03:27:10;4.90;98.00
4505;DHT22;2265;48.794;9.520;2023-04-03T03:29:38;4.90;98.00
4505;DHT22;2265;48.794;9.520;2023-04-03T03:32:05;4.90;98.00
4505;DHT22;2265;48.794;9.520;2023-04-03T03:34:35;4.90;98.00
4505;DHT22;2265;48.794;9.520;2023-04-03T03:37:02;4.80;98.00
4505;DHT22;2265;48.794;9.520;2023-04-03T03:39:29;4.90;98.00
4505;DHT22;2265;48.794;9.520;2023-04-03T03:41:57;4.90;98.00
4505;DHT22;2265;48.794;9.520;2023-04-03T03:44:25;4.90;98.00
4505;DHT22;2265;48.794;9.520;2023-04-03T03:46:55;4.80;98.00
4505;DHT22;2265;48.794;9.520;2023-04-03T03:49:22;4.80;98.00
4505;DHT22;2265;48.794;9.520;2023-04-03T03:51:50;4.90;98.00
4505;DHT22;2265;48.794;9.520;2023-04-03T03:54:18;4.90;98.00
4505;DHT22;2265;48.794;9.520;2023-04-03T03:56:45;4.90;98.00
4505;DHT22;2265;48.794;9.520;2023-04-03T03:59:15;5.00;98.00
4505;DHT22;2265;48.794;9.520;2023-04-03T04:01:42;5.00;98.00
4505;DHT22;2265;48.794;9.520;2023-04-03T04:04:09;5.00;98.00
4505;DHT22;2265;48.794;9.520;2023-04-03T04:06:36;4.90;98.00
4505;DHT22;2265;48.794;9.520;2023-04-03T04:09:05;4.90;98.00
4505;DHT22;2265;48.794;9.520;2023-04-03T04:11:32;4.90;98.00
4505;DHT22;2265;48.794;9.520;2023-04-03T04:13:59;5.00;98.00
4505;DHT22;2265;48.794;9.520;2023-04-03T04:16:26;4.90;98.00
4505;DHT22;2265;48.794;9.520;2023-04-03T04:18:53;4.90;98.00
4505;DHT22;2265;48.794;9.520;2023-04-03T04:21:22;4.90;98.00
4505;DHT22;2265;48.794;9.520;2023-04-03T04:23:49;4.90;98.00
4505;DHT22;2265;48.794;9.520;2023-04-03T04:26:17;4.90;98.00
4505;DHT22;2265;48.794;9.520;2023-04-03T04:28:44;4.90;98.00
4505;DHT22;2265;48.794;9.520;2023-04-03T04:31:11;4.80;98.00
4505;DHT22;2265;48.794;9.520;2023-04-03T04:33:38;4.80;98.00
4505;DHT22;2265;48.794;9.520;2023-04-03T04:36:06;4.80;98.00
4505;DHT22;2265;48.794;9.520;2023-04-03T04:38:33;4.90;98.00
4505;DHT22;2265;48.794;9.520;2023-04-03T04:41:03;5.00;98.00
4505;DHT22;2265;48.794;9.520;2023-04-03T04:43:32;5.00;98.00
4505;DHT22;2265;48.794;9.520;2023-04-03T04:46:04;4.90;98.00
4505;DHT22;2265;48.794;9.520;2023-04-03T04:48:32;4.80;98.00
4505;DHT22;2265;48.794;9.520;2023-04-03T04:51:01;4.90;98.00
4505;DHT22;2265;48.794;9.520;2023-04-03T04:53:28;4.90;98.00
4505;DHT22;2265;48.794;9.520;2023-04-03T04:55:55;4.90;98.00
4505;DHT22;2265;48.794;9.520;2023-04-03T04:58:22;4.90;98.00
4505;DHT22;2265;48.794;9.520;2023-04-03T05:00:58;4.90;98.00
4505;DHT22;2265;48.794;9.520;2023-04-03T05:03:25;4.90;98.00
4505;DHT22;2265;48.794;9.520;2023-04-03T05:05:52;4.90;98.00
4505;DHT22;2265;48.794;9.520;2023-04-03T05:08:21;4.90;98.00
4505;DHT22;2265;48.794;9.520;2023-04-03T05:10:48;4.90;98.00
4505;DHT22;2265;48.794;9.520;2023-04-03T05:13:17;4.80;98.00
4505;DHT22;2265;48.794;9.520;2023-04-03T05:15:44;4.80;98.00
4505;DHT22;2265;48.794;9.520;2023-04-03T05:18:13;4.80;98.00
4505;DHT22;2265;48.794;9.520;2023-04-03T05:20:40;4.90;98.00
4505;DHT22;2265;48.794;9.520;2023-04-03T05:23:09;4.90;98.00
4505;DHT22;2265;48.794;9.520;2023-04-03T05:25:37;4.80;98.00
4505;DHT22;2265;48.794;9.520;2023-04-03T05:28:04;4.80;98.00
4505;DHT22;2265;48.794;9.520;2023-04-03T05:30:31;4.90;98.00
4505;DHT22;2265;48.794;9.520;2023-04-03T05:32:59;4.70;98.00
4505;DHT22;2265;48.794;9.520;2023-04-03T05:35:27;4.60;98.00
4505;DHT22;2265;48.794;9.520;2023-04-03T05:37:55;4.50;98.00
4505;DHT22;2265;48.794;9.520;2023-04-03T05:40:22;4.40;98.00
4505;DHT22;2265;48.794;9.520;2023-04-03T05:42:50;4.40;98.00
4505;DHT22;2265;48.794;9.520;2023-04-03T05:45:19;4.60;98.00
4505;DHT22;2265;48.794;9.520;2023-04-03T05:47:46;4.70;98.00
4505;DHT22;2265;48.794;9.520;2023-04-03T05:50:15;4.80;98.00
4505;DHT22;2265;48.794;9.520;2023-04-03T05:52:46;4.70;98.00
4505;DHT22;2265;48.794;9.520;2023-04-03T05:55:14;4.60;98.00
4505;DHT22;2265;48.794;9.520;2023-04-03T05:57:42;4.70;98.00
4505;DHT22;2265;48.794;9.520;2023-04-03T06:00:13;4.70;98.00
4505;DHT22;2265;48.794;9.520;2023-04-03T06:02:41;4.90;98.00
4505;DHT22;2265;48.794;9.520;2023-04-03T06:05:09;4.90;98.00
4505;DHT22;2265;48.794;9.520;2023-04-03T06:07:37;4.80;98.00
4505;DHT22;2265;48.794;9.520;2023-04-03T06:10:07;4.90;98.00
4505;DHT22;2265;48.794;9.520;2023-04-03T06:12:35;5.00;98.00
4505;DHT22;2265;48.794;9.520;2023-04-03T06:15:04;5.10;98.00
4505;DHT22;2265;48.794;9.520;2023-04-03T06:17:31;5.10;98.00
4505;DHT22;2265;48.794;9.520;2023-04-03T06:19:58;5.20;98.00
4505;DHT22;2265;48.794;9.520;2023-04-03T06:22:26;5.20;98.00
4505;DHT22;2265;48.794;9.520;2023-04-03T06:24:55;5.30;98.00
4505;DHT22;2265;48.794;9.520;2023-04-03T06:27:23;5.40;98.00
4505;DHT22;2265;48.794;9.520;2023-04-03T06:29:50;5.40;98.00
4505;DHT22;2265;48.794;9.520;2023-04-03T06:32:17;5.40;98.00
4505;DHT22;2265;48.794;9.520;2023-04-03T06:34:44;5.30;98.00
4505;DHT22;2265;48.794;9.520;2023-04-03T06:37:14;5.30;98.00
4505;DHT22;2265;48.794;9.520;2023-04-03T06:39:42;5.30;98.00
4505;DHT22;2265;48.794;9.520;2023-04-03T06:42:11;5.50;98.00
4505;DHT22;2265;48.794;9.520;2023-04-03T06:44:40;5.40;98.00
4505;DHT22;2265;48.794;9.520;2023-04-03T06:47:09;5.40;98.00
4505;DHT22;2265;48.794;9.520;2023-04-03T06:49:39;5.30;98.00
4505;DHT22;2265;48.794;9.520;2023-04-03T06:52:07;5.20;98.00
4505;DHT22;2265;48.794;9.520;2023-04-03T06:54:35;5.30;98.00
4505;DHT22;2265;48.794;9.520;2023-04-03T06:57:02;5.30;98.00
4505;DHT22;2265;48.794;9.520;2023-04-03T06:59:30;5.40;98.00
4505;DHT22;2265;48.794;9.520;2023-04-03T07:02:04;5.60;98.00
4505;DHT22;2265;48.794;9.520;2023-04-03T07:04:31;5.60;98.00
4505;DHT22;2265;48.794;9.520;2023-04-03T07:06:58;5.70;98.00
4505;DHT22;2265;48.794;9.520;2023-04-03T07:09:26;5.70;98.00
4505;DHT22;2265;48.794;9.520;2023-04-03T07:11:53;5.80;98.00
4505;DHT22;2265;48.794;9.520;2023-04-03T07:14:20;5.90;98.00
4505;DHT22;2265;48.794;9.520;2023-04-03T07:16:47;5.90;98.00
4505;DHT22;2265;48.794;9.520;2023-04-03T07:19:16;5.90;98.00
4505;DHT22;2265;48.794;9.520;2023-04-03T07:21:44;6.00;98.00
4505;DHT22;2265;48.794;9.520;2023-04-03T07:24:12;6.10;98.00
4505;DHT22;2265;48.794;9.520;2023-04-03T07:26:39;6.10;98.00
4505;DHT22;2265;48.794;9.520;2023-04-03T07:29:08;6.10;98.00
4505;DHT22;2265;48.794;9.520;2023-04-03T07:31:35;6.00;98.00
4505;DHT22;2265;48.794;9.520;2023-04-03T07:34:02;6.00;98.00
4505;DHT22;2265;48.794;9.520;2023-04-03T07:36:31;6.10;98.00
4505;DHT22;2265;48.794;9.520;2023-04-03T07:38:58;6.20;98.00
4505;DHT22;2265;48.794;9.520;2023-04-03T07:41:26;6.30;98.00
4505;DHT22;2265;48.794;9.520;2023-04-03T07:43:56;6.30;98.00
4505;DHT22;2265;48.794;9.520;2023-04-03T07:46:23;6.30;98.00
4505;DHT22;2265;48.794;9.520;2023-04-03T07:48:50;6.30;98.00
4505;DHT22;2265;48.794;9.520;2023-04-03T07:51:17;6.40;98.00
4505;DHT22;2265;48.794;9.520;2023-04-03T07:53:46;6.50;98.00
4505;DHT22;2265;48.794;9.520;2023-04-03T07:56:14;6.40;98.00
4505;DHT22;2265;48.794;9.520;2023-04-03T07:58:43;6.30;98.00
4505;DHT22;2265;48.794;9.520;2023-04-03T08:01:11;6.30;98.00
4505;DHT22;2265;48.794;9.520;2023-04-03T08:03:38;6.30;98.00
4505;DHT22;2265;48.794;9.520;2023-04-03T08:06:07;6.30;98.00
4505;DHT22;2265;48.794;9.520;2023-04-03T08:08:35;6.40;98.00
4505;DHT22;2265;48.794;9.520;2023-04-03T08:11:04;6.50;98.00
4505;DHT22;2265;48.794;9.520;2023-04-03T08:13:34;6.70;98.00
4505;DHT22;2265;48.794;9.520;2023-04-03T08:16:08;6.70;98.00
4505;DHT22;2265;48.794;9.520;2023-04-03T08:18:38;6.80;98.00
4505;DHT22;2265;48.794;9.520;2023-04-03T08:21:06;6.80;98.00
4505;DHT22;2265;48.794;9.520;2023-04-03T08:23:34;6.90;98.00
4505;DHT22;2265;48.794;9.520;2023-04-03T08:26:07;6.80;98.00
4505;DHT22;2265;48.794;9.520;2023-04-03T08:28:34;6.90;98.00
4505;DHT22;2265;48.794;9.520;2023-04-03T08:31:05;6.90;98.00
4505;DHT22;2265;48.794;9.520;2023-04-03T08:33:33;6.80;98.00
4505;DHT22;2265;48.794;9.520;2023-04-03T08:36:03;6.90;98.00
4505;DHT22;2265;48.794;9.520;2023-04-03T08:38:30;7.10;98.00
4505;DHT22;2265;48.794;9.520;2023-04-03T08:41:10;7.30;98.00
4505;DHT22;2265;48.794;9.520;2023-04-03T08:43:48;7.40;98.00
4505;DHT22;2265;48.794;9.520;2023-04-03T08:46:22;7.60;98.00
4505;DHT22;2265;48.794;9.520;2023-04-03T08:48:51;7.60;98.00
4505;DHT22;2265;48.794;9.520;2023-04-03T08:51:20;7.70;98.00
4505;DHT22;2265;48.794;9.520;2023-04-03T08:53:56;7.70;98.00
4505;DHT22;2265;48.794;9.520;2023-04-03T08:56:26;7.70;98.00
4505;DHT22;2265;48.794;9.520;2023-04-03T08:58:56;7.70;98.00
4505;DHT22;2265;48.794;9.520;2023-04-03T09:01:27;7.80;98.00
4505;DHT22;2265;48.794;9.520;2023-04-03T09:03:55;7.90;98.00
4505;DHT22;2265;48.794;9.520;2023-04-03T09:06:25;7.90;98.00
4505;DHT22;2265;48.794;9.520;2023-04-03T09:09:07;8.00;98.00
4505;DHT22;2265;48.794;9.520;2023-04-03T09:11:46;7.80;98.00
4505;DHT22;2265;48.794;9.520;2023-04-03T09:14:22;7.80;98.00
4505;DHT22;2265;48.794;9.520;2023-04-03T09:16:55;7.80;98.00
4505;DHT22;2265;48.794;9.520;2023-04-03T09:19:30;7.90;98.00
4505;DHT22;2265;48.794;9.520;2023-04-03T09:22:03;7.90;98.00
4505;DHT22;2265;48.794;9.520;2023-04-03T09:24:31;7.90;98.00
4505;DHT22;2265;48.794;9.520;2023-04-03T09:27:04;7.80;98.00
4505;DHT22;2265;48.794;9.520;2023-04-03T09:29:35;7.70;98.00
4505;DHT22;2265;48.794;9.520;2023-04-03T09:32:19;7.70;98.00
4505;DHT22;2265;48.794;9.520;2023-04-03T09:34:49;7.80;98.00
4505;DHT22;2265;48.794;9.520;2023-04-03T09:37:36;7.90;98.00
4505;DHT22;2265;48.794;9.520;2023-04-03T09:40:05;8.10;98.00
4505;DHT22;2265;48.794;9.520;2023-04-03T09:42:40;8.20;98.00
4505;DHT22;2265;48.794;9.520;2023-04-03T09:45:22;8.30;98.00
4505;DHT22;2265;48.794;9.520;2023-04-03T09:48:04;8.20;98.00
4505;DHT22;2265;48.794;9.520;2023-04-03T09:50:32;8.20;98.00
4505;DHT22;2265;48.794;9.520;2023-04-03T09:53:05;7.90;98.00
4505;DHT22;2265;48.794;9.520;2023-04-03T09:55:33;7.80;98.00
4505;DHT22;2265;48.794;9.520;2023-04-03T09:58:26;7.60;98.00
4505;DHT22;2265;48.794;9.520;2023-04-03T10:00:55;7.60;98.00
4505;DHT22;2265;48.794;9.520;2023-04-03T10:03:25;7.60;98.00
4505;DHT22;2265;48.794;9.520;2023-04-03T10:05:53;7.60;98.00
4505;DHT22;2265;48.794;9.520;2023-04-03T10:08:23;7.50;98.00
4505;DHT22;2265;48.794;9.520;2023-04-03T10:11:15;7.40;98.00
4505;DHT22;2265;48.794;9.520;2023-04-03T10:13:55;7.40;98.00
4505;DHT22;2265;48.794;9.520;2023-04-03T10:16:27;7.30;98.00
4505;DHT22;2265;48.794;9.520;2023-04-03T10:19:15;7.40;98.00
4505;DHT22;2265;48.794;9.520;2023-04-03T10:21:48;7.60;98.00
4505;DHT22;2265;48.794;9.520;2023-04-03T10:24:23;7.70;98.00
4505;DHT22;2265;48.794;9.520;2023-04-03T10:26:58;7.80;98.00
4505;DHT22;2265;48.794;9.520;2023-04-03T10:29:38;7.90;98.00
4505;DHT22;2265;48.794;9.520;2023-04-03T10:32:24;7.90;98.00
4505;DHT22;2265;48.794;9.520;2023-04-03T10:34:58;7.90;98.00
4505;DHT22;2265;48.794;9.520;2023-04-03T10:37:32;7.90;98.00
4505;DHT22;2265;48.794;9.520;2023-04-03T10:40:10;7.80;98.00
4505;DHT22;2265;48.794;9.520;2023-04-03T10:42:46;7.80;98.00
4505;DHT22;2265;48.794;9.520;2023-04-03T10:45:24;7.80;98.00
4505;DHT22;2265;48.794;9.520;2023-04-03T10:48:01;7.80;98.00
4505;DHT22;2265;48.794;9.520;2023-04-03T10:50:39;7.90;98.00
4505;DHT22;2265;48.794;9.520;2023-04-03T10:53:17;7.90;98.00
4505;DHT22;2265;48.794;9.520;2023-04-03T10:55:53;7.90;98.00
4505;DHT22;2265;48.794;9.520;2023-04-03T10:58:28;8.00;97.20
4505;DHT22;2265;48.794;9.520;2023-04-03T11:01:02;8.20;97.90
4505;DHT22;2265;48.794;9.520;2023-04-03T11:03:36;8.30;96.40
4505;DHT22;2265;48.794;9.520;2023-04-03T11:06:06;8.30;96.10
4505;DHT22;2265;48.794;9.520;2023-04-03T11:08:36;8.40;95.50
4505;DHT22;2265;48.794;9.520;2023-04-03T11:11:09;8.30;94.80
4505;DHT22;2265;48.794;9.520;2023-04-03T11:13:41;8.20;95.20
4505;DHT22;2265;48.794;9.520;2023-04-03T11:16:19;8.10;96.30
4505;DHT22;2265;48.794;9.520;2023-04-03T11:18:49;8.10;95.90
4505;DHT22;2265;48.794;9.520;2023-04-03T11:21:21;8.00;96.60
4505;DHT22;2265;48.794;9.520;2023-04-03T11:23:51;8.00;97.80
4505;DHT22;2265;48.794;9.520;2023-04-03T11:26:21;8.10;96.90
4505;DHT22;2265;48.794;9.520;2023-04-03T11:28:53;8.10;96.30
4505;DHT22;2265;48.794;9.520;2023-04-03T11:34:27;8.30;96.10
4505;DHT22;2265;48.794;9.520;2023-04-03T11:37:05;8.40;95.10
4505;DHT22;2265;48.794;9.520;2023-04-03T11:39:38;8.50;94.90
4505;DHT22;2265;48.794;9.520;2023-04-03T11:42:15;8.50;94.90
4505;DHT22;2265;48.794;9.520;2023-04-03T11:44:44;8.50;95.00
4505;DHT22;2265;48.794;9.520;2023-04-03T11:47:45;8.40;95.00
4505;DHT22;2265;48.794;9.520;2023-04-03T11:50:44;8.30;95.80
4505;DHT22;2265;48.794;9.520;2023-04-03T11:53:30;8.20;96.00
4505;DHT22;2265;48.794;9.520;2023-04-03T11:55:59;8.20;95.60
4505;DHT22;2265;48.794;9.520;2023-04-03T11:58:30;8.30;95.40
4505;DHT22;2265;48.794;9.520;2023-04-03T12:01:03;8.50;93.40
4505;DHT22;2265;48.794;9.520;2023-04-03T12:07:00;8.90;94.10
4505;DHT22;2265;48.794;9.520;2023-04-03T12:12:33;9.30;96.40
4505;DHT22;2265;48.794;9.520;2023-04-03T12:17:57;9.50;94.60
4505;DHT22;2265;48.794;9.520;2023-04-03T12:20:54;9.50;96.30
4505;DHT22;2265;48.794;9.520;2023-04-03T12:23:31;9.60;94.70
4505;DHT22;2265;48.794;9.520;2023-04-03T12:26:08;9.70;94.90
4505;DHT22;2265;48.794;9.520;2023-04-03T12:28:48;9.80;94.60
4505;DHT22;2265;48.794;9.520;2023-04-03T12:31:18;9.80;92.30
4505;DHT22;2265;48.794;9.520;2023-04-03T12:34:09;9.80;92.50
4505;DHT22;2265;48.794;9.520;2023-04-03T12:36:49;9.80;92.10
4505;DHT22;2265;48.794;9.520;2023-04-03T12:39:48;9.50;92.80
4505;DHT22;2265;48.794;9.520;2023-04-03T12:42:30;9.50;93.10
4505;DHT22;2265;48.794;9.520;2023-04-03T12:45:03;9.50;93.10
4505;DHT22;2265;48.794;9.520;2023-04-03T12:47:37;9.40;93.20
4505;DHT22;2265;48.794;9.520;2023-04-03T12:50:19;9.40;93.60
4505;DHT22;2265;48.794;9.520;2023-04-03T12:52:54;9.40;92.00
4505;DHT22;2265;48.794;9.520;2023-04-03T12:55:23;9.50;91.40
4505;DHT22;2265;48.794;9.520;2023-04-03T12:57:51;9.40;91.80
4505;DHT22;2265;48.794;9.520;2023-04-03T13:00:21;9.40;91.00
4505;DHT22;2265;48.794;9.520;2023-04-03T13:02:52;9.40;91.70
4505;DHT22;2265;48.794;9.520;2023-04-03T13:05:21;9.40;92.30
4505;DHT22;2265;48.794;9.520;2023-04-03T13:07:50;9.50;93.00
4505;DHT22;2265;48.794;9.520;2023-04-03T13:10:19;9.50;91.60
4505;DHT22;2265;48.794;9.520;2023-04-03T13:12:51;9.40;92.80
4505;DHT22;2265;48.794;9.520;2023-04-03T13:15:20;9.40;91.60
4505;DHT22;2265;48.794;9.520;2023-04-03T13:17:48;9.50;91.50
4505;DHT22;2265;48.794;9.520;2023-04-03T13:20:21;9.50;89.60
4505;DHT22;2265;48.794;9.520;2023-04-03T13:22:54;9.60;89.20
4505;DHT22;2265;48.794;9.520;2023-04-03T13:25:23;9.50;89.50
4505;DHT22;2265;48.794;9.520;2023-04-03T13:27:53;9.50;91.30
4505;DHT22;2265;48.794;9.520;2023-04-03T13:30:25;9.40;92.70
4505;DHT22;2265;48.794;9.520;2023-04-03T13:32:53;9.40;92.50
4505;DHT22;2265;48.794;9.520;2023-04-03T13:35:34;9.40;91.90
4505;DHT22;2265;48.794;9.520;2023-04-03T13:38:04;9.50;90.60
4505;DHT22;2265;48.794;9.520;2023-04-03T13:40:33;9.50;91.50
4505;DHT22;2265;48.794;9.520;2023-04-03T13:43:14;9.50;91.70
4505;DHT22;2265;48.794;9.520;2023-04-03T13:45:56;9.50;90.50
4505;DHT22;2265;48.794;9.520;2023-04-03T13:48:24;10.10;90.10
4505;DHT22;2265;48.794;9.520;2023-04-03T13:51:00;11.10;91.40
4505;DHT22;2265;48.794;9.520;2023-04-03T13:53:30;11.80;87.40
4505;DHT22;2265;48.794;9.520;2023-04-03T13:56:05;12.10;85.60
4505;DHT22;2265;48.794;9.520;2023-04-03T13:58:36;11.90;85.10
4505;DHT22;2265;48.794;9.520;2023-04-03T14:01:10;11.60;85.30
4505;DHT22;2265;48.794;9.520;2023-04-03T14:03:42;11.10;84.30
4505;DHT22;2265;48.794;9.520;2023-04-03T14:06:14;10.60;84.70
4505;DHT22;2265;48.794;9.520;2023-04-03T14:08:41;10.30;85.00
4505;DHT22;2265;48.794;9.520;2023-04-03T14:11:12;10.20;85.90
4505;DHT22;2265;48.794;9.520;2023-04-03T14:13:42;10.00;86.60
4505;DHT22;2265;48.794;9.520;2023-04-03T14:16:14;9.90;85.80
4505;DHT22;2265;48.794;9.520;2023-04-03T14:18:43;9.90;88.00
4505;DHT22;2265;48.794;9.520;2023-04-03T14:21:15;9.80;88.60
4505;DHT22;2265;48.794;9.520;2023-04-03T14:23:44;9.80;88.70
4505;DHT22;2265;48.794;9.520;2023-04-03T14:26:13;9.80;88.50
4505;DHT22;2265;48.794;9.520;2023-04-03T14:28:46;9.90;98.00
4505;DHT22;2265;48.794;9.520;2023-04-03T14:31:15;10.20;94.80
4505;DHT22;2265;48.794;9.520;2023-04-03T14:33:44;10.20;89.10
4505;DHT22;2265;48.794;9.520;2023-04-03T14:36:13;10.00;89.60
4505;DHT22;2265;48.794;9.520;2023-04-03T14:38:42;9.90;91.40
4505;DHT22;2265;48.794;9.520;2023-04-03T14:41:15;9.80;89.80
4505;DHT22;2265;48.794;9.520;2023-04-03T14:43:44;9.70;90.20
4505;DHT22;2265;48.794;9.520;2023-04-03T14:46:15;9.70;88.60
4505;DHT22;2265;48.794;9.520;2023-04-03T14:48:43;9.60;88.90
4505;DHT22;2265;48.794;9.520;2023-04-03T14:51:11;9.90;90.00
4505;DHT22;2265;48.794;9.520;2023-04-03T14:53:44;10.90;90.10
4505;DHT22;2265;48.794;9.520;2023-04-03T14:56:13;11.70;87.70
4505;DHT22;2265;48.794;9.520;2023-04-03T14:58:40;12.40;86.90
4505;DHT22;2265;48.794;9.520;2023-04-03T15:01:11;13.20;84.30
4505;DHT22;2265;48.794;9.520;2023-04-03T15:03:39;13.80;82.90
4505;DHT22;2265;48.794;9.520;2023-04-03T15:06:13;14.30;83.10
4505;DHT22;2265;48.794;9.520;2023-04-03T15:08:41;14.60;80.50
4505;DHT22;2265;48.794;9.520;2023-04-03T15:11:10;14.40;80.00
4505;DHT22;2265;48.794;9.520;2023-04-03T15:13:38;13.80;78.40
4505;DHT22;2265;48.794;9.520;2023-04-03T15:16:05;12.90;79.40
4505;DHT22;2265;48.794;9.520;2023-04-03T15:18:37;12.20;80.80
4505;DHT22;2265;48.794;9.520;2023-04-03T15:21:05;11.60;80.40
4505;DHT22;2265;48.794;9.520;2023-04-03T15:23:32;11.10;82.80
4505;DHT22;2265;48.794;9.520;2023-04-03T15:25:59;10.80;83.40
4505;DHT22;2265;48.794;9.520;2023-04-03T15:28:28;10.60;83.60
4505;DHT22;2265;48.794;9.520;2023-04-03T15:30:57;10.40;85.10
4505;DHT22;2265;48.794;9.520;2023-04-03T15:33:25;10.40;85.60
4505;DHT22;2265;48.794;9.520;2023-04-03T15:35:54;10.40;85.40
4505;DHT22;2265;48.794;9.520;2023-04-03T15:38:21;10.80;86.00
4505;DHT22;2265;48.794;9.520;2023-04-03T15:40:48;11.40;84.30
4505;DHT22;2265;48.794;9.520;2023-04-03T15:43:16;11.70;82.80
4505;DHT22;2265;48.794;9.520;2023-04-03T15:45:44;11.30;81.70
4505;DHT22;2265;48.794;9.520;2023-04-03T15:48:12;10.80;83.50
4505;DHT22;2265;48.794;9.520;2023-04-03T15:50:40;10.50;83.80
4505;DHT22;2265;48.794;9.520;2023-04-03T15:53:09;10.20;83.80
4505;DHT22;2265;48.794;9.520;2023-04-03T15:55:37;10.00;84.00
4505;DHT22;2265;48.794;9.520;2023-04-03T15:58:06;9.90;84.50
4505;DHT22;2265;48.794;9.520;2023-04-03T16:00:33;9.70;84.30
4505;DHT22;2265;48.794;9.520;2023-04-03T16:03:07;9.50;85.20
4505;DHT22;2265;48.794;9.520;2023-04-03T16:05:37;9.50;84.10
4505;DHT22;2265;48.794;9.520;2023-04-03T16:08:09;9.60;85.90
4505;DHT22;2265;48.794;9.520;2023-04-03T16:10:36;9.90;86.00
4505;DHT22;2265;48.794;9.520;2023-04-03T16:13:03;10.40;85.30
4505;DHT22;2265;48.794;9.520;2023-04-03T16:15:34;10.90;83.80
4505;DHT22;2265;48.794;9.520;2023-04-03T16:18:03;11.40;82.20
4505;DHT22;2265;48.794;9.520;2023-04-03T16:20:30;12.10;82.40
4505;DHT22;2265;48.794;9.520;2023-04-03T16:22:58;12.40;80.80
4505;DHT22;2265;48.794;9.520;2023-04-03T16:25:27;12.30;80.50
4505;DHT22;2265;48.794;9.520;2023-04-03T16:27:56;11.70;80.80
4505;DHT22;2265;48.794;9.520;2023-04-03T16:30:23;11.30;82.50
4505;DHT22;2265;48.794;9.520;2023-04-03T16:32:50;10.80;83.40
4505;DHT22;2265;48.794;9.520;2023-04-03T16:35:19;10.40;84.50
4505;DHT22;2265;48.794;9.520;2023-04-03T16:37:46;10.20;83.60
4505;DHT22;2265;48.794;9.520;2023-04-03T16:40:13;9.90;84.40
4505;DHT22;2265;48.794;9.520;2023-04-03T16:42:43;9.60;85.30
4505;DHT22;2265;48.794;9.520;2023-04-03T16:45:12;9.50;86.60
4505;DHT22;2265;48.794;9.520;2023-04-03T16:47:39;9.40;86.50
4505;DHT22;2265;48.794;9.520;2023-04-03T16:50:07;9.40;86.40